sensor_id;sensor_type;location;lat;lon;timestamp;P1;P2;P0
61592;PMS5003;70568;51.378;-1.342;2023-11-19T00:00:59;9;8;
61592;PMS5003;70568;51.378;-1.342;2023-11-19T00:03:25;9;7;
61592;PMS5003;70568;51.378;-1.342;2023-11-19T00:05:52;14;11;
61592;PMS5003;70568;51.378;-1.342;2023-11-19T00:08:19;10;8;
61592;PMS5003;70568;51.378;-1.342;2023-11-19T00:10:45;11;9;
61592;PMS5003;70568;51.378;-1.342;2023-11-19T00:13:12;13;11;
61592;PMS5003;70568;51.378;-1.342;2023-11-19T00:15:38;12;8;
61592;PMS5003;70568;51.378;-1.342;2023-11-19T00:18:05;10;8;
61592;PMS5003;70568;51.378;-1.342;2023-11-19T00:20:32;18;15;
61592;PMS5003;70568;51.378;-1.342;2023-11-19T00:22:59;10;9;
61592;PMS5003;70568;51.378;-1.342;2023-11-19T00:25:26;13;10;
61592;PMS5003;70568;51.378;-1.342;2023-11-19T00:27:53;7;7;
61592;PMS5003;70568;51.378;-1.342;2023-11-19T00:30:20;16;14;
61592;PMS5003;70568;51.378;-1.342;2023-11-19T00:32:47;11;10;
61592;PMS5003;70568;51.378;-1.342;2023-11-19T00:35:15;7;6;
61592;PMS5003;70568;51.378;-1.342;2023-11-19T00:37:41;9;7;
61592;PMS5003;70568;51.378;-1.342;2023-11-19T00:40:08;9;9;
61592;PMS5003;70568;51.378;-1.342;2023-11-19T00:42:36;8;7;
61592;PMS5003;70568;51.378;-1.342;2023-11-19T00:45:04;20;16;
61592;PMS5003;70568;51.378;-1.342;2023-11-19T00:47:31;11;9;
61592;PMS5003;70568;51.378;-1.342;2023-11-19T00:49:58;13;9;
61592;PMS5003;70568;51.378;-1.342;2023-11-19T00:52:25;10;8;
61592;PMS5003;70568;51.378;-1.342;2023-11-19T00:54:52;12;8;
61592;PMS5003;70568;51.378;-1.342;2023-11-19T00:57:19;10;10;
61592;PMS5003;70568;51.378;-1.342;2023-11-19T00:59:45;13;11;
61592;PMS5003;70568;51.378;-1.342;2023-11-19T01:02:12;12;9;
61592;PMS5003;70568;51.378;-1.342;2023-11-19T01:04:38;11;9;
61592;PMS5003;70568;51.378;-1.342;2023-11-19T01:07:06;9;7;
61592;PMS5003;70568;51.378;-1.342;2023-11-19T01:09:33;13;10;
61592;PMS5003;70568;51.378;-1.342;2023-11-19T01:12:00;10;10;
61592;PMS5003;70568;51.378;-1.342;2023-11-19T01:14:27;8;7;
61592;PMS5003;70568;51.378;-1.342;2023-11-19T01:16:55;14;9;
61592;PMS5003;70568;51.378;-1.342;2023-11-19T01:19:22;9;9;
61592;PMS5003;70568;51.378;-1.342;2023-11-19T01:21:49;13;10;
61592;PMS5003;70568;51.378;-1.342;2023-11-19T01:24:16;16;14;
61592;PMS5003;70568;51.378;-1.342;2023-11-19T01:26:43;20;11;
61592;PMS5003;70568;51.378;-1.342;2023-11-19T01:29:11;15;10;
61592;PMS5003;70568;51.378;-1.342;2023-11-19T01:31:38;9;7;
61592;PMS5003;70568;51.378;-1.342;2023-11-19T01:34:04;14;11;
61592;PMS5003;70568;51.378;-1.342;2023-11-19T01:36:31;10;8;
61592;PMS5003;70568;51.378;-1.342;2023-11-19T01:38:58;13;9;
61592;PMS5003;70568;51.378;-1.342;2023-11-19T01:41:24;14;9;
61592;PMS5003;70568;51.378;-1.342;2023-11-19T01:43:51;10;8;
61592;PMS5003;70568;51.378;-1.342;2023-11-19T01:46:18;11;9;
61592;PMS5003;70568;51.378;-1.342;2023-11-19T01:48:45;14;10;
61592;PMS5003;70568;51.378;-1.342;2023-11-19T01:51:13;12;10;
61592;PMS5003;70568;51.378;-1.342;2023-11-19T01:53:40;11;8;
61592;PMS5003;70568;51.378;-1.342;2023-11-19T01:56:07;11;11;
61592;PMS5003;70568;51.378;-1.342;2023-11-19T01:58:36;16;11;
61592;PMS5003;70568;51.378;-1.342;2023-11-19T02:01:03;10;7;
61592;PMS5003;70568;51.378;-1.342;2023-11-19T02:03:31;6;5;
61592;PMS5003;70568;51.378;-1.342;2023-11-19T02:05:58;11;7;
61592;PMS5003;70568;51.378;-1.342;2023-11-19T02:08:25;12;11;
61592;PMS5003;70568;51.378;-1.342;2023-11-19T02:10:52;13;11;
61592;PMS5003;70568;51.378;-1.342;2023-11-19T02:13:19;6;5;
61592;PMS5003;70568;51.378;-1.342;2023-11-19T02:15:46;5;5;
61592;PMS5003;70568;51.378;-1.342;2023-11-19T02:18:17;8;6;
61592;PMS5003;70568;51.378;-1.342;2023-11-19T02:20:45;17;12;
61592;PMS5003;70568;51.378;-1.342;2023-11-19T02:23:12;14;12;
61592;PMS5003;70568;51.378;-1.342;2023-11-19T02:25:39;13;11;
61592;PMS5003;70568;51.378;-1.342;2023-11-19T02:28:06;6;5;
61592;PMS5003;70568;51.378;-1.342;2023-11-19T02:30:34;9;8;
61592;PMS5003;70568;51.378;-1.342;2023-11-19T02:33:00;7;7;
61592;PMS5003;70568;51.378;-1.342;2023-11-19T02:35:28;8;7;
61592;PMS5003;70568;51.378;-1.342;2023-11-19T02:37:55;7;7;
61592;PMS5003;70568;51.378;-1.342;2023-11-19T02:40:21;14;8;
61592;PMS5003;70568;51.378;-1.342;2023-11-19T02:42:48;13;6;
61592;PMS5003;70568;51.378;-1.342;2023-11-19T02:45:15;11;9;
61592;PMS5003;70568;51.378;-1.342;2023-11-19T02:47:42;6;6;
61592;PMS5003;70568;51.378;-1.342;2023-11-19T02:50:11;6;6;
61592;PMS5003;70568;51.378;-1.342;2023-11-19T02:52:38;11;9;
61592;PMS5003;70568;51.378;-1.342;2023-11-19T02:55:05;10;9;
61592;PMS5003;70568;51.378;-1.342;2023-11-19T02:57:32;9;7;
61592;PMS5003;70568;51.378;-1.342;2023-11-19T02:59:59;11;8;
61592;PMS5003;70568;51.378;-1.342;2023-11-19T03:02:26;15;11;
61592;PMS5003;70568;51.378;-1.342;2023-11-19T03:04:53;9;6;
61592;PMS5003;70568;51.378;-1.342;2023-11-19T03:07:19;11;9;
61592;PMS5003;70568;51.378;-1.342;2023-11-19T03:09:46;8;6;
61592;PMS5003;70568;51.378;-1.342;2023-11-19T03:12:13;7;6;
61592;PMS5003;70568;51.378;-1.342;2023-11-19T03:14:40;11;8;
61592;PMS5003;70568;51.378;-1.342;2023-11-19T03:17:06;9;7;
61592;PMS5003;70568;51.378;-1.342;2023-11-19T03:19:33;9;8;
61592;PMS5003;70568;51.378;-1.342;2023-11-19T03:22:01;8;5;
61592;PMS5003;70568;51.378;-1.342;2023-11-19T03:24:27;7;6;
61592;PMS5003;70568;51.378;-1.342;2023-11-19T03:26:55;8;8;
61592;PMS5003;70568;51.378;-1.342;2023-11-19T03:29:22;12;8;
61592;PMS5003;70568;51.378;-1.342;2023-11-19T03:31:49;5;5;
61592;PMS5003;70568;51.378;-1.342;2023-11-19T03:34:16;7;6;
61592;PMS5003;70568;51.378;-1.342;2023-11-19T03:36:44;6;5;
61592;PMS5003;70568;51.378;-1.342;2023-11-19T03:39:10;9;9;
61592;PMS5003;70568;51.378;-1.342;2023-11-19T03:41:37;11;7;
61592;PMS5003;70568;51.378;-1.342;2023-11-19T03:44:04;10;9;
61592;PMS5003;70568;51.378;-1.342;2023-11-19T03:46:31;15;12;
61592;PMS5003;70568;51.378;-1.342;2023-11-19T03:48:58;8;6;
61592;PMS5003;70568;51.378;-1.342;2023-11-19T03:51:25;9;6;
61592;PMS5003;70568;51.378;-1.342;2023-11-19T03:53:51;12;8;
61592;PMS5003;70568;51.378;-1.342;2023-11-19T03:56:18;10;8;
61592;PMS5003;70568;51.378;-1.342;2023-11-19T03:58:44;10;9;
61592;PMS5003;70568;51.378;-1.342;2023-11-19T04:01:11;6;5;
61592;PMS5003;70568;51.378;-1.342;2023-11-19T04:03:38;10;8;
61592;PMS5003;70568;51.378;-1.342;2023-11-19T04:06:05;13;11;
61592;PMS5003;70568;51.378;-1.342;2023-11-19T04:08:32;15;8;
61592;PMS5003;70568;51.378;-1.342;2023-11-19T04:10:59;9;6;
61592;PMS5003;70568;51.378;-1.342;2023-11-19T04:13:26;9;7;
61592;PMS5003;70568;51.378;-1.342;2023-11-19T04:15:53;9;7;
61592;PMS5003;70568;51.378;-1.342;2023-11-19T04:18:20;13;11;
61592;PMS5003;70568;51.378;-1.342;2023-11-19T04:20:47;7;6;
61592;PMS5003;70568;51.378;-1.342;2023-11-19T04:23:14;10;6;
61592;PMS5003;70568;51.378;-1.342;2023-11-19T04:25:41;9;6;
61592;PMS5003;70568;51.378;-1.342;2023-11-19T04:28:08;10;7;
61592;PMS5003;70568;51.378;-1.342;2023-11-19T04:30:36;9;6;
61592;PMS5003;70568;51.378;-1.342;2023-11-19T04:33:03;11;8;
61592;PMS5003;70568;51.378;-1.342;2023-11-19T04:35:30;12;7;
61592;PMS5003;70568;51.378;-1.342;2023-11-19T04:37:56;9;7;
61592;PMS5003;70568;51.378;-1.342;2023-11-19T04:40:23;13;10;
61592;PMS5003;70568;51.378;-1.342;2023-11-19T04:42:50;6;5;
61592;PMS5003;70568;51.378;-1.342;2023-11-19T04:45:16;10;7;
61592;PMS5003;70568;51.378;-1.342;2023-11-19T04:47:43;4;4;
61592;PMS5003;70568;51.378;-1.342;2023-11-19T04:50:10;14;9;
61592;PMS5003;70568;51.378;-1.342;2023-11-19T04:52:37;9;8;
61592;PMS5003;70568;51.378;-1.342;2023-11-19T04:55:04;10;10;
61592;PMS5003;70568;51.378;-1.342;2023-11-19T04:57:31;13;10;
61592;PMS5003;70568;51.378;-1.342;2023-11-19T04:59:58;12;10;
61592;PMS5003;70568;51.378;-1.342;2023-11-19T05:02:24;8;8;
61592;PMS5003;70568;51.378;-1.342;2023-11-19T05:04:51;7;5;
61592;PMS5003;70568;51.378;-1.342;2023-11-19T05:07:18;10;9;
61592;PMS5003;70568;51.378;-1.342;2023-11-19T05:09:45;11;9;
61592;PMS5003;70568;51.378;-1.342;2023-11-19T05:12:11;11;8;
61592;PMS5003;70568;51.378;-1.342;2023-11-19T05:14:38;8;6;
61592;PMS5003;70568;51.378;-1.342;2023-11-19T05:17:05;14;12;
61592;PMS5003;70568;51.378;-1.342;2023-11-19T05:19:31;8;5;
61592;PMS5003;70568;51.378;-1.342;2023-11-19T05:21:58;6;4;
61592;PMS5003;70568;51.378;-1.342;2023-11-19T05:24:25;13;6;
61592;PMS5003;70568;51.378;-1.342;2023-11-19T05:26:52;10;7;
61592;PMS5003;70568;51.378;-1.342;2023-11-19T05:29:18;7;6;
61592;PMS5003;70568;51.378;-1.342;2023-11-19T05:31:45;11;11;
61592;PMS5003;70568;51.378;-1.342;2023-11-19T05:34:12;8;7;
61592;PMS5003;70568;51.378;-1.342;2023-11-19T05:36:39;9;9;
61592;PMS5003;70568;51.378;-1.342;2023-11-19T05:39:06;9;6;
61592;PMS5003;70568;51.378;-1.342;2023-11-19T05:41:33;8;8;
61592;PMS5003;70568;51.378;-1.342;2023-11-19T05:44:00;8;5;
61592;PMS5003;70568;51.378;-1.342;2023-11-19T05:46:27;10;9;
61592;PMS5003;70568;51.378;-1.342;2023-11-19T05:48:54;7;6;
61592;PMS5003;70568;51.378;-1.342;2023-11-19T05:51:21;4;4;
61592;PMS5003;70568;51.378;-1.342;2023-11-19T05:53:47;10;6;
61592;PMS5003;70568;51.378;-1.342;2023-11-19T05:56:14;8;6;
61592;PMS5003;70568;51.378;-1.342;2023-11-19T05:58:41;5;4;
61592;PMS5003;70568;51.378;-1.342;2023-11-19T06:01:07;7;7;
61592;PMS5003;70568;51.378;-1.342;2023-11-19T06:03:34;7;6;
61592;PMS5003;70568;51.378;-1.342;2023-11-19T06:06:01;7;5;
61592;PMS5003;70568;51.378;-1.342;2023-11-19T06:08:28;10;8;
61592;PMS5003;70568;51.378;-1.342;2023-11-19T06:10:55;10;6;
61592;PMS5003;70568;51.378;-1.342;2023-11-19T06:13:22;7;6;
61592;PMS5003;70568;51.378;-1.342;2023-11-19T06:15:48;6;5;
61592;PMS5003;70568;51.378;-1.342;2023-11-19T06:18:15;4;4;
61592;PMS5003;70568;51.378;-1.342;2023-11-19T06:20:43;10;5;
61592;PMS5003;70568;51.378;-1.342;2023-11-19T06:23:10;7;3;
61592;PMS5003;70568;51.378;-1.342;2023-11-19T06:25:36;5;5;
61592;PMS5003;70568;51.378;-1.342;2023-11-19T06:28:04;5;3;
61592;PMS5003;70568;51.378;-1.342;2023-11-19T06:30:31;6;4;
61592;PMS5003;70568;51.378;-1.342;2023-11-19T06:32:58;8;4;
61592;PMS5003;70568;51.378;-1.342;2023-11-19T06:35:25;5;5;
61592;PMS5003;70568;51.378;-1.342;2023-11-19T06:37:52;6;4;
61592;PMS5003;70568;51.378;-1.342;2023-11-19T06:40:18;7;5;
61592;PMS5003;70568;51.378;-1.342;2023-11-19T06:42:45;4;2;
61592;PMS5003;70568;51.378;-1.342;2023-11-19T06:45:12;4;4;
61592;PMS5003;70568;51.378;-1.342;2023-11-19T06:47:38;5;4;
61592;PMS5003;70568;51.378;-1.342;2023-11-19T06:50:06;5;5;
61592;PMS5003;70568;51.378;-1.342;2023-11-19T06:52:33;8;5;
61592;PMS5003;70568;51.378;-1.342;2023-11-19T06:55:00;5;4;
61592;PMS5003;70568;51.378;-1.342;2023-11-19T06:57:27;9;7;
61592;PMS5003;70568;51.378;-1.342;2023-11-19T06:59:54;13;7;
61592;PMS5003;70568;51.378;-1.342;2023-11-19T07:02:21;6;4;
61592;PMS5003;70568;51.378;-1.342;2023-11-19T07:04:48;3;3;
61592;PMS5003;70568;51.378;-1.342;2023-11-19T07:07:14;8;7;
61592;PMS5003;70568;51.378;-1.342;2023-11-19T07:09:41;10;10;
61592;PMS5003;70568;51.378;-1.342;2023-11-19T07:12:07;8;7;
61592;PMS5003;70568;51.378;-1.342;2023-11-19T07:14:34;4;3;
61592;PMS5003;70568;51.378;-1.342;2023-11-19T07:17:01;7;6;
61592;PMS5003;70568;51.378;-1.342;2023-11-19T07:19:29;6;4;
61592;PMS5003;70568;51.378;-1.342;2023-11-19T07:21:57;8;6;
61592;PMS5003;70568;51.378;-1.342;2023-11-19T07:24:24;8;6;
61592;PMS5003;70568;51.378;-1.342;2023-11-19T07:26:51;5;5;
61592;PMS5003;70568;51.378;-1.342;2023-11-19T07:29:18;5;4;
61592;PMS5003;70568;51.378;-1.342;2023-11-19T07:31:44;7;6;
61592;PMS5003;70568;51.378;-1.342;2023-11-19T07:34:11;7;5;
61592;PMS5003;70568;51.378;-1.342;2023-11-19T07:36:38;7;4;
61592;PMS5003;70568;51.378;-1.342;2023-11-19T07:39:05;4;3;
61592;PMS5003;70568;51.378;-1.342;2023-11-19T07:41:32;3;3;
61592;PMS5003;70568;51.378;-1.342;2023-11-19T07:44:00;3;3;
61592;PMS5003;70568;51.378;-1.342;2023-11-19T07:46:27;5;4;
61592;PMS5003;70568;51.378;-1.342;2023-11-19T07:48:53;2;2;
61592;PMS5003;70568;51.378;-1.342;2023-11-19T07:51:20;6;3;
61592;PMS5003;70568;51.378;-1.342;2023-11-19T07:53:46;4;3;
61592;PMS5003;70568;51.378;-1.342;2023-11-19T07:56:13;8;7;
61592;PMS5003;70568;51.378;-1.342;2023-11-19T07:58:39;7;4;
61592;PMS5003;70568;51.378;-1.342;2023-11-19T08:01:06;7;5;
61592;PMS5003;70568;51.378;-1.342;2023-11-19T08:03:33;7;6;
61592;PMS5003;70568;51.378;-1.342;2023-11-19T08:05:59;4;3;
61592;PMS5003;70568;51.378;-1.342;2023-11-19T08:08:26;3;3;
61592;PMS5003;70568;51.378;-1.342;2023-11-19T08:10:53;5;4;
61592;PMS5003;70568;51.378;-1.342;2023-11-19T08:13:19;7;4;
61592;PMS5003;70568;51.378;-1.342;2023-11-19T08:15:46;3;3;
61592;PMS5003;70568;51.378;-1.342;2023-11-19T08:18:13;5;5;
61592;PMS5003;70568;51.378;-1.342;2023-11-19T08:20:40;13;9;
61592;PMS5003;70568;51.378;-1.342;2023-11-19T08:23:07;4;4;
61592;PMS5003;70568;51.378;-1.342;2023-11-19T08:25:34;7;5;
61592;PMS5003;70568;51.378;-1.342;2023-11-19T08:28:01;11;9;
61592;PMS5003;70568;51.378;-1.342;2023-11-19T08:30:28;5;4;
61592;PMS5003;70568;51.378;-1.342;2023-11-19T08:32:56;7;4;
61592;PMS5003;70568;51.378;-1.342;2023-11-19T08:35:22;9;7;
61592;PMS5003;70568;51.378;-1.342;2023-11-19T08:37:49;7;4;
61592;PMS5003;70568;51.378;-1.342;2023-11-19T08:40:16;2;2;
61592;PMS5003;70568;51.378;-1.342;2023-11-19T08:42:42;3;2;
61592;PMS5003;70568;51.378;-1.342;2023-11-19T08:45:09;4;4;
61592;PMS5003;70568;51.378;-1.342;2023-11-19T08:47:37;3;2;
61592;PMS5003;70568;51.378;-1.342;2023-11-19T08:50:04;6;3;
61592;PMS5003;70568;51.378;-1.342;2023-11-19T08:52:31;2;1;
61592;PMS5003;70568;51.378;-1.342;2023-11-19T08:54:58;6;5;
61592;PMS5003;70568;51.378;-1.342;2023-11-19T08:57:25;7;6;
61592;PMS5003;70568;51.378;-1.342;2023-11-19T08:59:52;6;4;
61592;PMS5003;70568;51.378;-1.342;2023-11-19T09:02:19;4;3;
61592;PMS5003;70568;51.378;-1.342;2023-11-19T09:04:46;5;5;
61592;PMS5003;70568;51.378;-1.342;2023-11-19T09:07:12;8;5;
61592;PMS5003;70568;51.378;-1.342;2023-11-19T09:09:39;6;4;
61592;PMS5003;70568;51.378;-1.342;2023-11-19T09:12:05;5;5;
61592;PMS5003;70568;51.378;-1.342;2023-11-19T09:14:32;13;11;
61592;PMS5003;70568;51.378;-1.342;2023-11-19T09:16:59;5;5;
61592;PMS5003;70568;51.378;-1.342;2023-11-19T09:19:26;11;5;
61592;PMS5003;70568;51.378;-1.342;2023-11-19T09:21:53;5;5;
61592;PMS5003;70568;51.378;-1.342;2023-11-19T09:24:19;8;6;
61592;PMS5003;70568;51.378;-1.342;2023-11-19T09:26:46;7;5;
61592;PMS5003;70568;51.378;-1.342;2023-11-19T09:29:12;6;6;
61592;PMS5003;70568;51.378;-1.342;2023-11-19T09:31:39;5;5;
61592;PMS5003;70568;51.378;-1.342;2023-11-19T09:34:06;4;4;
61592;PMS5003;70568;51.378;-1.342;2023-11-19T09:36:33;5;4;
61592;PMS5003;70568;51.378;-1.342;2023-11-19T09:38:59;8;6;
61592;PMS5003;70568;51.378;-1.342;2023-11-19T09:41:26;4;4;
61592;PMS5003;70568;51.378;-1.342;2023-11-19T09:43:53;6;4;
61592;PMS5003;70568;51.378;-1.342;2023-11-19T09:46:20;11;9;
61592;PMS5003;70568;51.378;-1.342;2023-11-19T09:48:47;8;6;
61592;PMS5003;70568;51.378;-1.342;2023-11-19T09:51:15;6;6;
61592;PMS5003;70568;51.378;-1.342;2023-11-19T09:53:42;5;4;
61592;PMS5003;70568;51.378;-1.342;2023-11-19T09:56:08;3;3;
61592;PMS5003;70568;51.378;-1.342;2023-11-19T09:58:35;6;5;
61592;PMS5003;70568;51.378;-1.342;2023-11-19T10:01:02;3;3;
61592;PMS5003;70568;51.378;-1.342;2023-11-19T10:03:31;6;5;
61592;PMS5003;70568;51.378;-1.342;2023-11-19T10:06:00;4;3;
61592;PMS5003;70568;51.378;-1.342;2023-11-19T10:08:27;5;4;
61592;PMS5003;70568;51.378;-1.342;2023-11-19T10:10:54;6;4;
61592;PMS5003;70568;51.378;-1.342;2023-11-19T10:13:21;4;2;
61592;PMS5003;70568;51.378;-1.342;2023-11-19T10:15:52;6;4;
61592;PMS5003;70568;51.378;-1.342;2023-11-19T10:18:23;10;6;
61592;PMS5003;70568;51.378;-1.342;2023-11-19T10:20:50;1;0;
61592;PMS5003;70568;51.378;-1.342;2023-11-19T10:23:17;5;4;
61592;PMS5003;70568;51.378;-1.342;2023-11-19T10:25:44;5;4;
61592;PMS5003;70568;51.378;-1.342;2023-11-19T10:28:11;6;5;
61592;PMS5003;70568;51.378;-1.342;2023-11-19T10:30:38;4;2;
61592;PMS5003;70568;51.378;-1.342;2023-11-19T10:33:08;3;2;
61592;PMS5003;70568;51.378;-1.342;2023-11-19T10:35:37;3;2;
61592;PMS5003;70568;51.378;-1.342;2023-11-19T10:38:17;6;3;
61592;PMS5003;70568;51.378;-1.342;2023-11-19T10:40:45;4;4;
61592;PMS5003;70568;51.378;-1.342;2023-11-19T10:43:12;2;2;
61592;PMS5003;70568;51.378;-1.342;2023-11-19T10:45:39;8;5;
61592;PMS5003;70568;51.378;-1.342;2023-11-19T10:48:07;8;5;
61592;PMS5003;70568;51.378;-1.342;2023-11-19T10:50:34;6;4;
61592;PMS5003;70568;51.378;-1.342;2023-11-19T10:53:03;5;4;
61592;PMS5003;70568;51.378;-1.342;2023-11-19T10:55:32;5;5;
61592;PMS5003;70568;51.378;-1.342;2023-11-19T10:58:00;4;3;
61592;PMS5003;70568;51.378;-1.342;2023-11-19T11:00:29;5;4;
61592;PMS5003;70568;51.378;-1.342;2023-11-19T11:03:00;8;6;
61592;PMS5003;70568;51.378;-1.342;2023-11-19T11:05:28;2;1;
61592;PMS5003;70568;51.378;-1.342;2023-11-19T11:07:58;4;3;
61592;PMS5003;70568;51.378;-1.342;2023-11-19T11:10:27;3;2;
61592;PMS5003;70568;51.378;-1.342;2023-11-19T11:12:58;3;1;
61592;PMS5003;70568;51.378;-1.342;2023-11-19T11:15:27;5;3;
61592;PMS5003;70568;51.378;-1.342;2023-11-19T11:17:56;4;3;
61592;PMS5003;70568;51.378;-1.342;2023-11-19T11:20:26;4;3;
61592;PMS5003;70568;51.378;-1.342;2023-11-19T11:22:56;4;2;
61592;PMS5003;70568;51.378;-1.342;2023-11-19T11:25:37;2;2;
61592;PMS5003;70568;51.378;-1.342;2023-11-19T11:28:16;5;3;
61592;PMS5003;70568;51.378;-1.342;2023-11-19T11:30:55;4;4;
61592;PMS5003;70568;51.378;-1.342;2023-11-19T11:33:38;3;2;
61592;PMS5003;70568;51.378;-1.342;2023-11-19T11:36:20;3;3;
61592;PMS5003;70568;51.378;-1.342;2023-11-19T11:38:49;5;4;
61592;PMS5003;70568;51.378;-1.342;2023-11-19T11:41:16;5;5;
61592;PMS5003;70568;51.378;-1.342;2023-11-19T11:43:45;7;6;
61592;PMS5003;70568;51.378;-1.342;2023-11-19T11:47:00;3;3;
61592;PMS5003;70568;51.378;-1.342;2023-11-19T11:49:28;3;3;
61592;PMS5003;70568;51.378;-1.342;2023-11-19T11:51:57;8;7;
61592;PMS5003;70568;51.378;-1.342;2023-11-19T11:54:29;6;6;
61592;PMS5003;70568;51.378;-1.342;2023-11-19T11:57:06;2;2;
61592;PMS5003;70568;51.378;-1.342;2023-11-19T11:59:36;8;8;
61592;PMS5003;70568;51.378;-1.342;2023-11-19T12:02:09;2;2;
61592;PMS5003;70568;51.378;-1.342;2023-11-19T12:04:37;3;2;
61592;PMS5003;70568;51.378;-1.342;2023-11-19T12:07:06;6;3;
61592;PMS5003;70568;51.378;-1.342;2023-11-19T12:09:33;2;2;
61592;PMS5003;70568;51.378;-1.342;2023-11-19T12:12:13;3;2;
61592;PMS5003;70568;51.378;-1.342;2023-11-19T12:15:17;1;1;
61592;PMS5003;70568;51.378;-1.342;2023-11-19T12:17:48;5;3;
61592;PMS5003;70568;51.378;-1.342;2023-11-19T12:20:15;3;2;
61592;PMS5003;70568;51.378;-1.342;2023-11-19T12:22:44;2;2;
61592;PMS5003;70568;51.378;-1.342;2023-11-19T12:25:12;4;3;
61592;PMS5003;70568;51.378;-1.342;2023-11-19T12:27:40;2;1;
61592;PMS5003;70568;51.378;-1.342;2023-11-19T12:30:08;2;1;
61592;PMS5003;70568;51.378;-1.342;2023-11-19T12:32:39;2;1;
61592;PMS5003;70568;51.378;-1.342;2023-11-19T12:35:06;3;2;
61592;PMS5003;70568;51.378;-1.342;2023-11-19T12:37:34;1;1;
61592;PMS5003;70568;51.378;-1.342;2023-11-19T12:40:10;1;1;
61592;PMS5003;70568;51.378;-1.342;2023-11-19T12:42:38;1;1;
61592;PMS5003;70568;51.378;-1.342;2023-11-19T12:45:05;3;2;
61592;PMS5003;70568;51.378;-1.342;2023-11-19T12:47:32;2;2;
61592;PMS5003;70568;51.378;-1.342;2023-11-19T12:49:58;1;1;
61592;PMS5003;70568;51.378;-1.342;2023-11-19T12:52:25;3;1;
61592;PMS5003;70568;51.378;-1.342;2023-11-19T12:54:51;3;2;
61592;PMS5003;70568;51.378;-1.342;2023-11-19T12:57:17;1;1;
61592;PMS5003;70568;51.378;-1.342;2023-11-19T12:59:54;1;1;
61592;PMS5003;70568;51.378;-1.342;2023-11-19T13:02:21;0;0;
61592;PMS5003;70568;51.378;-1.342;2023-11-19T13:04:47;0;0;
61592;PMS5003;70568;51.378;-1.342;2023-11-19T13:07:15;3;2;
61592;PMS5003;70568;51.378;-1.342;2023-11-19T13:09:46;1;0;
61592;PMS5003;70568;51.378;-1.342;2023-11-19T13:12:13;1;0;
61592;PMS5003;70568;51.378;-1.342;2023-11-19T13:14:40;1;1;
61592;PMS5003;70568;51.378;-1.342;2023-11-19T13:17:06;1;0;
61592;PMS5003;70568;51.378;-1.342;2023-11-19T13:19:33;2;2;
61592;PMS5003;70568;51.378;-1.342;2023-11-19T13:22:00;3;1;
61592;PMS5003;70568;51.378;-1.342;2023-11-19T13:24:27;1;0;
61592;PMS5003;70568;51.378;-1.342;2023-11-19T13:26:54;0;0;
61592;PMS5003;70568;51.378;-1.342;2023-11-19T13:29:21;1;0;
61592;PMS5003;70568;51.378;-1.342;2023-11-19T13:31:48;1;0;
61592;PMS5003;70568;51.378;-1.342;2023-11-19T13:34:15;0;0;
61592;PMS5003;70568;51.378;-1.342;2023-11-19T13:36:43;0;0;
61592;PMS5003;70568;51.378;-1.342;2023-11-19T13:39:10;0;0;
61592;PMS5003;70568;51.378;-1.342;2023-11-19T13:41:36;0;0;
61592;PMS5003;70568;51.378;-1.342;2023-11-19T13:44:03;0;0;
61592;PMS5003;70568;51.378;-1.342;2023-11-19T13:46:30;2;1;
61592;PMS5003;70568;51.378;-1.342;2023-11-19T13:48:57;0;0;
61592;PMS5003;70568;51.378;-1.342;2023-11-19T13:51:24;0;0;
61592;PMS5003;70568;51.378;-1.342;2023-11-19T13:53:50;0;0;
61592;PMS5003;70568;51.378;-1.342;2023-11-19T13:56:17;0;0;
61592;PMS5003;70568;51.378;-1.342;2023-11-19T13:58:43;0;0;
61592;PMS5003;70568;51.378;-1.342;2023-11-19T14:01:09;0;0;
61592;PMS5003;70568;51.378;-1.342;2023-11-19T14:03:36;0;0;
61592;PMS5003;70568;51.378;-1.342;2023-11-19T14:06:02;0;0;
61592;PMS5003;70568;51.378;-1.342;2023-11-19T14:08:30;1;0;
61592;PMS5003;70568;51.378;-1.342;2023-11-19T14:10:58;0;0;
61592;PMS5003;70568;51.378;-1.342;2023-11-19T14:13:24;0;0;
61592;PMS5003;70568;51.378;-1.342;2023-11-19T14:15:51;0;0;
61592;PMS5003;70568;51.378;-1.342;2023-11-19T14:18:18;2;1;
61592;PMS5003;70568;51.378;-1.342;2023-11-19T14:20:44;1;1;
61592;PMS5003;70568;51.378;-1.342;2023-11-19T14:23:11;0;0;
61592;PMS5003;70568;51.378;-1.342;2023-11-19T14:25:37;0;0;
61592;PMS5003;70568;51.378;-1.342;2023-11-19T14:28:04;0;0;
61592;PMS5003;70568;51.378;-1.342;2023-11-19T14:30:31;0;0;
61592;PMS5003;70568;51.378;-1.342;2023-11-19T14:32:58;0;0;
61592;PMS5003;70568;51.378;-1.342;2023-11-19T14:35:24;1;0;
61592;PMS5003;70568;51.378;-1.342;2023-11-19T14:37:51;0;0;
61592;PMS5003;70568;51.378;-1.342;2023-11-19T14:40:17;1;0;
61592;PMS5003;70568;51.378;-1.342;2023-11-19T14:42:44;1;0;
61592;PMS5003;70568;51.378;-1.342;2023-11-19T14:45:10;1;0;
61592;PMS5003;70568;51.378;-1.342;2023-11-19T14:47:37;1;1;
61592;PMS5003;70568;51.378;-1.342;2023-11-19T14:50:03;1;1;
61592;PMS5003;70568;51.378;-1.342;2023-11-19T14:52:32;0;0;
61592;PMS5003;70568;51.378;-1.342;2023-11-19T14:54:59;0;0;
61592;PMS5003;70568;51.378;-1.342;2023-11-19T14:57:25;1;1;
61592;PMS5003;70568;51.378;-1.342;2023-11-19T14:59:52;0;0;
61592;PMS5003;70568;51.378;-1.342;2023-11-19T15:02:18;1;1;
61592;PMS5003;70568;51.378;-1.342;2023-11-19T15:04:44;0;0;
61592;PMS5003;70568;51.378;-1.342;2023-11-19T15:07:11;2;2;
61592;PMS5003;70568;51.378;-1.342;2023-11-19T15:09:37;0;0;
61592;PMS5003;70568;51.378;-1.342;2023-11-19T15:12:04;3;3;
61592;PMS5003;70568;51.378;-1.342;2023-11-19T15:14:32;2;2;
61592;PMS5003;70568;51.378;-1.342;2023-11-19T15:16:58;0;0;
61592;PMS5003;70568;51.378;-1.342;2023-11-19T15:19:25;1;1;
61592;PMS5003;70568;51.378;-1.342;2023-11-19T15:21:51;3;2;
61592;PMS5003;70568;51.378;-1.342;2023-11-19T15:24:19;2;2;
61592;PMS5003;70568;51.378;-1.342;2023-11-19T15:26:46;0;0;
61592;PMS5003;70568;51.378;-1.342;2023-11-19T15:29:13;1;1;
61592;PMS5003;70568;51.378;-1.342;2023-11-19T15:31:39;0;0;
61592;PMS5003;70568;51.378;-1.342;2023-11-19T15:34:06;0;0;
61592;PMS5003;70568;51.378;-1.342;2023-11-19T15:36:32;2;0;
61592;PMS5003;70568;51.378;-1.342;2023-11-19T15:38:59;2;2;
61592;PMS5003;70568;51.378;-1.342;2023-11-19T15:41:25;0;0;
61592;PMS5003;70568;51.378;-1.342;2023-11-19T15:43:52;2;1;
61592;PMS5003;70568;51.378;-1.342;2023-11-19T15:46:18;0;0;
61592;PMS5003;70568;51.378;-1.342;2023-11-19T15:48:44;0;0;
61592;PMS5003;70568;51.378;-1.342;2023-11-19T15:51:11;0;0;
61592;PMS5003;70568;51.378;-1.342;2023-11-19T15:53:37;3;2;
61592;PMS5003;70568;51.378;-1.342;2023-11-19T15:56:04;2;1;
61592;PMS5003;70568;51.378;-1.342;2023-11-19T15:58:32;2;1;
61592;PMS5003;70568;51.378;-1.342;2023-11-19T16:00:59;1;1;
61592;PMS5003;70568;51.378;-1.342;2023-11-19T16:03:25;2;2;
61592;PMS5003;70568;51.378;-1.342;2023-11-19T16:05:52;2;2;
61592;PMS5003;70568;51.378;-1.342;2023-11-19T16:08:18;3;3;
61592;PMS5003;70568;51.378;-1.342;2023-11-19T16:10:44;1;1;
61592;PMS5003;70568;51.378;-1.342;2023-11-19T16:13:11;3;3;
61592;PMS5003;70568;51.378;-1.342;2023-11-19T16:15:38;2;1;
61592;PMS5003;70568;51.378;-1.342;2023-11-19T16:18:04;3;3;
61592;PMS5003;70568;51.378;-1.342;2023-11-19T16:20:32;2;1;
61592;PMS5003;70568;51.378;-1.342;2023-11-19T16:22:59;3;3;
61592;PMS5003;70568;51.378;-1.342;2023-11-19T16:25:26;2;2;
61592;PMS5003;70568;51.378;-1.342;2023-11-19T16:27:53;4;3;
61592;PMS5003;70568;51.378;-1.342;2023-11-19T16:30:20;1;1;